sensor_id;sensor_type;location;lat;lon;timestamp;P1;durP1;ratioP1;P2;durP2;ratioP2
47796;SDS011;33558;50.922;14.068;2022-07-09T00:00:52;9.63;;;6.10;;
47796;SDS011;33558;50.922;14.068;2022-07-09T00:03:19;6.93;;;5.97;;
47796;SDS011;33558;50.922;14.068;2022-07-09T00:05:46;10.47;;;6.10;;
47796;SDS011;33558;50.922;14.068;2022-07-09T00:08:13;11.37;;;6.50;;
47796;SDS011;33558;50.922;14.068;2022-07-09T00:10:40;10.53;;;6.27;;
47796;SDS011;33558;50.922;14.068;2022-07-09T00:13:07;7.97;;;6.07;;
47796;SDS011;33558;50.922;14.068;2022-07-09T00:15:34;9.00;;;6.23;;
47796;SDS011;33558;50.922;14.068;2022-07-09T00:20:49;7.20;;;6.37;;
47796;SDS011;33558;50.922;14.068;2022-07-09T00:23:15;8.47;;;6.13;;
47796;SDS011;33558;50.922;14.068;2022-07-09T00:25:43;7.60;;;6.27;;
47796;SDS011;33558;50.922;14.068;2022-07-09T00:28:10;7.70;;;6.20;;
47796;SDS011;33558;50.922;14.068;2022-07-09T00:30:36;10.77;;;6.67;;
47796;SDS011;33558;50.922;14.068;2022-07-09T00:33:03;9.13;;;7.03;;
47796;SDS011;33558;50.922;14.068;2022-07-09T00:35:30;10.00;;;6.30;;
47796;SDS011;33558;50.922;14.068;2022-07-09T00:37:56;9.07;;;6.60;;
47796;SDS011;33558;50.922;14.068;2022-07-09T00:40:23;12.07;;;7.13;;
47796;SDS011;33558;50.922;14.068;2022-07-09T00:42:51;17.20;;;7.03;;
47796;SDS011;33558;50.922;14.068;2022-07-09T00:45:42;7.87;;;6.00;;
47796;SDS011;33558;50.922;14.068;2022-07-09T00:56:10;9.00;;;7.03;;
47796;SDS011;33558;50.922;14.068;2022-07-09T00:58:39;11.40;;;6.40;;
47796;SDS011;33558;50.922;14.068;2022-07-09T01:01:08;8.33;;;7.10;;
47796;SDS011;33558;50.922;14.068;2022-07-09T01:03:35;12.30;;;7.13;;
47796;SDS011;33558;50.922;14.068;2022-07-09T01:06:01;10.90;;;6.80;;
47796;SDS011;33558;50.922;14.068;2022-07-09T01:08:28;9.57;;;6.87;;
47796;SDS011;33558;50.922;14.068;2022-07-09T01:10:54;9.37;;;6.80;;
47796;SDS011;33558;50.922;14.068;2022-07-09T01:13:21;13.70;;;7.47;;
47796;SDS011;33558;50.922;14.068;2022-07-09T01:15:49;12.83;;;6.80;;
47796;SDS011;33558;50.922;14.068;2022-07-09T01:18:16;9.83;;;7.20;;
47796;SDS011;33558;50.922;14.068;2022-07-09T01:20:44;12.53;;;7.53;;
47796;SDS011;33558;50.922;14.068;2022-07-09T01:23:11;10.00;;;7.47;;
47796;SDS011;33558;50.922;14.068;2022-07-09T01:25:38;11.40;;;6.77;;
47796;SDS011;33558;50.922;14.068;2022-07-09T01:28:07;11.97;;;7.30;;
47796;SDS011;33558;50.922;14.068;2022-07-09T01:30:35;13.57;;;7.20;;
47796;SDS011;33558;50.922;14.068;2022-07-09T01:33:03;14.90;;;6.80;;
47796;SDS011;33558;50.922;14.068;2022-07-09T01:35:29;13.07;;;8.17;;
47796;SDS011;33558;50.922;14.068;2022-07-09T01:37:58;9.97;;;8.17;;
47796;SDS011;33558;50.922;14.068;2022-07-09T01:40:24;15.60;;;8.23;;
47796;SDS011;33558;50.922;14.068;2022-07-09T01:42:51;12.87;;;8.73;;
47796;SDS011;33558;50.922;14.068;2022-07-09T01:45:17;13.10;;;8.63;;
47796;SDS011;33558;50.922;14.068;2022-07-09T01:47:44;14.60;;;10.00;;
47796;SDS011;33558;50.922;14.068;2022-07-09T01:50:11;12.37;;;9.10;;
47796;SDS011;33558;50.922;14.068;2022-07-09T01:52:37;14.30;;;9.47;;
47796;SDS011;33558;50.922;14.068;2022-07-09T01:55:06;13.37;;;9.80;;
47796;SDS011;33558;50.922;14.068;2022-07-09T01:57:33;11.80;;;8.77;;
47796;SDS011;33558;50.922;14.068;2022-07-09T02:00:24;12.37;;;8.57;;
47796;SDS011;33558;50.922;14.068;2022-07-09T02:02:52;18.43;;;9.30;;
47796;SDS011;33558;50.922;14.068;2022-07-09T02:05:19;10.43;;;8.40;;
47796;SDS011;33558;50.922;14.068;2022-07-09T02:07:46;11.77;;;8.07;;
47796;SDS011;33558;50.922;14.068;2022-07-09T02:10:14;13.57;;;9.00;;
47796;SDS011;33558;50.922;14.068;2022-07-09T02:12:41;11.80;;;9.33;;
47796;SDS011;33558;50.922;14.068;2022-07-09T02:15:32;13.27;;;9.03;;
47796;SDS011;33558;50.922;14.068;2022-07-09T02:17:59;10.70;;;8.55;;
47796;SDS011;33558;50.922;14.068;2022-07-09T02:20:26;11.98;;;8.20;;
47796;SDS011;33558;50.922;14.068;2022-07-09T02:22:53;11.23;;;9.00;;
47796;SDS011;33558;50.922;14.068;2022-07-09T02:25:21;11.68;;;8.27;;
47796;SDS011;33558;50.922;14.068;2022-07-09T02:27:47;10.95;;;8.07;;
47796;SDS011;33558;50.922;14.068;2022-07-09T02:30:39;14.07;;;8.10;;
47796;SDS011;33558;50.922;14.068;2022-07-09T02:33:05;11.93;;;7.70;;
47796;SDS011;33558;50.922;14.068;2022-07-09T02:35:32;11.75;;;8.30;;
47796;SDS011;33558;50.922;14.068;2022-07-09T02:37:58;11.00;;;7.67;;
47796;SDS011;33558;50.922;14.068;2022-07-09T02:40:26;8.88;;;7.47;;
47796;SDS011;33558;50.922;14.068;2022-07-09T02:42:53;10.83;;;7.13;;
47796;SDS011;33558;50.922;14.068;2022-07-09T02:45:25;9.40;;;7.03;;
47796;SDS011;33558;50.922;14.068;2022-07-09T02:47:52;9.23;;;7.15;;
47796;SDS011;33558;50.922;14.068;2022-07-09T02:50:18;13.45;;;6.80;;
47796;SDS011;33558;50.922;14.068;2022-07-09T02:52:45;9.88;;;7.38;;
47796;SDS011;33558;50.922;14.068;2022-07-09T02:55:11;11.07;;;6.55;;
47796;SDS011;33558;50.922;14.068;2022-07-09T02:57:39;9.85;;;6.35;;
47796;SDS011;33558;50.922;14.068;2022-07-09T03:00:32;11.18;;;6.68;;
47796;SDS011;33558;50.922;14.068;2022-07-09T03:02:59;10.17;;;6.07;;
47796;SDS011;33558;50.922;14.068;2022-07-09T03:05:26;8.48;;;6.55;;
47796;SDS011;33558;50.922;14.068;2022-07-09T03:07:52;7.93;;;6.27;;
47796;SDS011;33558;50.922;14.068;2022-07-09T03:10:19;7.93;;;6.63;;
47796;SDS011;33558;50.922;14.068;2022-07-09T03:12:47;12.70;;;6.10;;
47796;SDS011;33558;50.922;14.068;2022-07-09T03:15:39;10.82;;;6.80;;
47796;SDS011;33558;50.922;14.068;2022-07-09T03:18:05;9.15;;;7.10;;
47796;SDS011;33558;50.922;14.068;2022-07-09T03:20:33;10.70;;;6.57;;
47796;SDS011;33558;50.922;14.068;2022-07-09T03:23:00;10.25;;;6.40;;
47796;SDS011;33558;50.922;14.068;2022-07-09T03:25:27;9.25;;;6.55;;
47796;SDS011;33558;50.922;14.068;2022-07-09T03:27:57;12.30;;;6.73;;
47796;SDS011;33558;50.922;14.068;2022-07-09T03:30:24;9.68;;;6.03;;
47796;SDS011;33558;50.922;14.068;2022-07-09T03:32:51;7.47;;;6.13;;
47796;SDS011;33558;50.922;14.068;2022-07-09T03:35:18;8.03;;;6.13;;
47796;SDS011;33558;50.922;14.068;2022-07-09T03:37:44;7.80;;;5.88;;
47796;SDS011;33558;50.922;14.068;2022-07-09T03:40:11;10.40;;;5.55;;
47796;SDS011;33558;50.922;14.068;2022-07-09T03:42:38;12.03;;;6.47;;
47796;SDS011;33558;50.922;14.068;2022-07-09T03:45:31;10.40;;;5.80;;
47796;SDS011;33558;50.922;14.068;2022-07-09T03:47:58;9.90;;;6.97;;
47796;SDS011;33558;50.922;14.068;2022-07-09T03:50:24;8.75;;;5.90;;
47796;SDS011;33558;50.922;14.068;2022-07-09T03:52:51;11.65;;;5.97;;
47796;SDS011;33558;50.922;14.068;2022-07-09T03:55:17;7.65;;;6.25;;
47796;SDS011;33558;50.922;14.068;2022-07-09T03:57:44;8.38;;;6.22;;
47796;SDS011;33558;50.922;14.068;2022-07-09T04:00:38;7.53;;;5.90;;
47796;SDS011;33558;50.922;14.068;2022-07-09T04:03:05;7.03;;;6.10;;
47796;SDS011;33558;50.922;14.068;2022-07-09T04:05:31;6.70;;;5.75;;
47796;SDS011;33558;50.922;14.068;2022-07-09T04:07:58;9.75;;;6.65;;
47796;SDS011;33558;50.922;14.068;2022-07-09T04:10:24;9.57;;;6.50;;
47796;SDS011;33558;50.922;14.068;2022-07-09T04:12:51;10.75;;;5.90;;
47796;SDS011;33558;50.922;14.068;2022-07-09T04:15:44;12.13;;;6.97;;
47796;SDS011;33558;50.922;14.068;2022-07-09T04:18:11;10.82;;;7.00;;
47796;SDS011;33558;50.922;14.068;2022-07-09T04:20:39;8.65;;;6.45;;
47796;SDS011;33558;50.922;14.068;2022-07-09T04:23:06;6.53;;;5.45;;
47796;SDS011;33558;50.922;14.068;2022-07-09T04:25:33;8.05;;;6.13;;
47796;SDS011;33558;50.922;14.068;2022-07-09T04:27:59;9.57;;;6.75;;
47796;SDS011;33558;50.922;14.068;2022-07-09T04:30:26;13.18;;;6.95;;
47796;SDS011;33558;50.922;14.068;2022-07-09T04:32:54;7.82;;;5.78;;
47796;SDS011;33558;50.922;14.068;2022-07-09T04:35:21;9.35;;;6.03;;
47796;SDS011;33558;50.922;14.068;2022-07-09T04:37:47;10.38;;;6.40;;
47796;SDS011;33558;50.922;14.068;2022-07-09T04:40:14;9.15;;;6.88;;
47796;SDS011;33558;50.922;14.068;2022-07-09T04:42:41;9.50;;;6.87;;
47796;SDS011;33558;50.922;14.068;2022-07-09T04:45:32;9.82;;;6.68;;
47796;SDS011;33558;50.922;14.068;2022-07-09T04:48:00;7.83;;;5.43;;
47796;SDS011;33558;50.922;14.068;2022-07-09T04:50:27;7.67;;;5.70;;
47796;SDS011;33558;50.922;14.068;2022-07-09T04:52:54;9.23;;;6.20;;
47796;SDS011;33558;50.922;14.068;2022-07-09T04:55:20;6.90;;;5.37;;
47796;SDS011;33558;50.922;14.068;2022-07-09T05:08:35;5.57;;;4.97;;
47796;SDS011;33558;50.922;14.068;2022-07-09T05:11:01;5.75;;;4.82;;
47796;SDS011;33558;50.922;14.068;2022-07-09T05:13:28;5.80;;;5.20;;
47796;SDS011;33558;50.922;14.068;2022-07-09T05:15:54;5.93;;;4.90;;
47796;SDS011;33558;50.922;14.068;2022-07-09T05:18:21;4.90;;;4.25;;
47796;SDS011;33558;50.922;14.068;2022-07-09T05:20:48;6.70;;;4.43;;
47796;SDS011;33558;50.922;14.068;2022-07-09T05:23:14;6.80;;;5.00;;
47796;SDS011;33558;50.922;14.068;2022-07-09T05:25:42;8.25;;;4.88;;
47796;SDS011;33558;50.922;14.068;2022-07-09T05:28:09;5.63;;;4.20;;
47796;SDS011;33558;50.922;14.068;2022-07-09T05:30:35;5.80;;;4.10;;
47796;SDS011;33558;50.922;14.068;2022-07-09T05:33:03;4.55;;;4.15;;
47796;SDS011;33558;50.922;14.068;2022-07-09T05:35:29;4.10;;;3.70;;
47796;SDS011;33558;50.922;14.068;2022-07-09T05:37:56;7.00;;;4.43;;
47796;SDS011;33558;50.922;14.068;2022-07-09T05:40:23;6.40;;;3.72;;
47796;SDS011;33558;50.922;14.068;2022-07-09T05:42:51;5.60;;;3.90;;
47796;SDS011;33558;50.922;14.068;2022-07-09T05:45:43;5.35;;;3.72;;
47796;SDS011;33558;50.922;14.068;2022-07-09T05:48:09;4.28;;;3.25;;
47796;SDS011;33558;50.922;14.068;2022-07-09T05:50:36;4.32;;;3.53;;
47796;SDS011;33558;50.922;14.068;2022-07-09T05:53:02;5.93;;;3.20;;
47796;SDS011;33558;50.922;14.068;2022-07-09T05:55:29;5.75;;;3.05;;
47796;SDS011;33558;50.922;14.068;2022-07-09T05:57:57;3.75;;;3.20;;
47796;SDS011;33558;50.922;14.068;2022-07-09T06:00:25;5.55;;;3.33;;
47796;SDS011;33558;50.922;14.068;2022-07-09T06:02:51;3.97;;;3.58;;
47796;SDS011;33558;50.922;14.068;2022-07-09T06:05:19;3.75;;;3.30;;
47796;SDS011;33558;50.922;14.068;2022-07-09T06:07:46;5.05;;;3.05;;
47796;SDS011;33558;50.922;14.068;2022-07-09T06:10:12;4.75;;;3.22;;
47796;SDS011;33558;50.922;14.068;2022-07-09T06:12:39;4.55;;;3.50;;
47796;SDS011;33558;50.922;14.068;2022-07-09T06:15:33;4.40;;;3.30;;
47796;SDS011;33558;50.922;14.068;2022-07-09T06:18:00;4.45;;;3.15;;
47796;SDS011;33558;50.922;14.068;2022-07-09T06:20:26;4.45;;;3.80;;
47796;SDS011;33558;50.922;14.068;2022-07-09T06:22:53;5.47;;;3.05;;
47796;SDS011;33558;50.922;14.068;2022-07-09T06:25:20;5.68;;;3.35;;
47796;SDS011;33558;50.922;14.068;2022-07-09T06:27:46;5.50;;;3.13;;
47796;SDS011;33558;50.922;14.068;2022-07-09T06:30:39;6.00;;;2.72;;
47796;SDS011;33558;50.922;14.068;2022-07-09T06:33:05;6.78;;;2.97;;
47796;SDS011;33558;50.922;14.068;2022-07-09T06:35:32;5.82;;;2.60;;
47796;SDS011;33558;50.922;14.068;2022-07-09T06:37:59;5.55;;;3.00;;
47796;SDS011;33558;50.922;14.068;2022-07-09T06:40:26;6.38;;;2.72;;
47796;SDS011;33558;50.922;14.068;2022-07-09T06:42:52;7.30;;;2.90;;
47796;SDS011;33558;50.922;14.068;2022-07-09T06:45:45;6.22;;;2.67;;
47796;SDS011;33558;50.922;14.068;2022-07-09T06:48:12;5.10;;;2.17;;
47796;SDS011;33558;50.922;14.068;2022-07-09T06:50:38;6.05;;;2.63;;
47796;SDS011;33558;50.922;14.068;2022-07-09T06:53:05;5.53;;;2.80;;
47796;SDS011;33558;50.922;14.068;2022-07-09T06:55:31;7.45;;;2.75;;
47796;SDS011;33558;50.922;14.068;2022-07-09T06:57:58;6.50;;;2.72;;
47796;SDS011;33558;50.922;14.068;2022-07-09T07:00:25;6.35;;;3.58;;
47796;SDS011;33558;50.922;14.068;2022-07-09T07:02:53;6.47;;;2.80;;
47796;SDS011;33558;50.922;14.068;2022-07-09T07:05:24;5.88;;;3.15;;
47796;SDS011;33558;50.922;14.068;2022-07-09T07:07:51;5.68;;;3.10;;
47796;SDS011;33558;50.922;14.068;2022-07-09T07:10:18;4.18;;;2.70;;
47796;SDS011;33558;50.922;14.068;2022-07-09T07:12:45;3.65;;;2.95;;
47796;SDS011;33558;50.922;14.068;2022-07-09T07:15:36;6.45;;;2.88;;
47796;SDS011;33558;50.922;14.068;2022-07-09T07:18:04;5.93;;;3.00;;
47796;SDS011;33558;50.922;14.068;2022-07-09T07:20:31;7.65;;;3.17;;
47796;SDS011;33558;50.922;14.068;2022-07-09T07:22:58;7.32;;;2.83;;
47796;SDS011;33558;50.922;14.068;2022-07-09T07:25:24;5.80;;;3.10;;
47796;SDS011;33558;50.922;14.068;2022-07-09T07:27:51;7.22;;;3.15;;
47796;SDS011;33558;50.922;14.068;2022-07-09T07:30:43;7.05;;;2.97;;
47796;SDS011;33558;50.922;14.068;2022-07-09T07:33:11;5.57;;;2.80;;
47796;SDS011;33558;50.922;14.068;2022-07-09T07:35:38;6.57;;;3.80;;
47796;SDS011;33558;50.922;14.068;2022-07-09T07:38:04;4.88;;;2.83;;
47796;SDS011;33558;50.922;14.068;2022-07-09T07:40:31;8.27;;;3.35;;
47796;SDS011;33558;50.922;14.068;2022-07-09T07:42:57;6.40;;;3.90;;
47796;SDS011;33558;50.922;14.068;2022-07-09T07:45:26;7.32;;;3.72;;
47796;SDS011;33558;50.922;14.068;2022-07-09T07:47:53;6.82;;;3.28;;
47796;SDS011;33558;50.922;14.068;2022-07-09T07:50:21;7.60;;;3.00;;
47796;SDS011;33558;50.922;14.068;2022-07-09T07:52:48;6.72;;;3.25;;
47796;SDS011;33558;50.922;14.068;2022-07-09T07:55:15;5.20;;;3.30;;
47796;SDS011;33558;50.922;14.068;2022-07-09T08:00:23;5.80;;;3.75;;
47796;SDS011;33558;50.922;14.068;2022-07-09T08:02:50;5.22;;;3.70;;
47796;SDS011;33558;50.922;14.068;2022-07-09T08:05:17;4.68;;;3.40;;
47796;SDS011;33558;50.922;14.068;2022-07-09T08:07:45;5.47;;;3.30;;
47796;SDS011;33558;50.922;14.068;2022-07-09T08:10:12;9.30;;;3.40;;
47796;SDS011;33558;50.922;14.068;2022-07-09T08:12:38;5.95;;;3.40;;
47796;SDS011;33558;50.922;14.068;2022-07-09T08:15:29;4.20;;;3.47;;
47796;SDS011;33558;50.922;14.068;2022-07-09T08:17:56;6.10;;;3.17;;
47796;SDS011;33558;50.922;14.068;2022-07-09T08:20:23;3.75;;;3.38;;
47796;SDS011;33558;50.922;14.068;2022-07-09T08:22:51;7.63;;;3.70;;
47796;SDS011;33558;50.922;14.068;2022-07-09T08:25:17;8.13;;;4.05;;
47796;SDS011;33558;50.922;14.068;2022-07-09T08:30:26;7.88;;;3.35;;
47796;SDS011;33558;50.922;14.068;2022-07-09T08:32:53;6.82;;;4.13;;
47796;SDS011;33558;50.922;14.068;2022-07-09T08:35:19;6.90;;;3.53;;
47796;SDS011;33558;50.922;14.068;2022-07-09T08:37:46;6.70;;;3.35;;
47796;SDS011;33558;50.922;14.068;2022-07-09T08:40:14;4.47;;;3.15;;
47796;SDS011;33558;50.922;14.068;2022-07-09T08:42:41;4.32;;;3.05;;
47796;SDS011;33558;50.922;14.068;2022-07-09T08:45:33;5.15;;;2.90;;
47796;SDS011;33558;50.922;14.068;2022-07-09T08:48:01;5.15;;;3.03;;
47796;SDS011;33558;50.922;14.068;2022-07-09T08:50:27;7.93;;;3.40;;
47796;SDS011;33558;50.922;14.068;2022-07-09T08:52:54;4.93;;;2.45;;
47796;SDS011;33558;50.922;14.068;2022-07-09T08:55:22;4.55;;;2.40;;
47796;SDS011;33558;50.922;14.068;2022-07-09T09:00:27;3.30;;;2.53;;
47796;SDS011;33558;50.922;14.068;2022-07-09T09:02:54;6.05;;;2.78;;
47796;SDS011;33558;50.922;14.068;2022-07-09T09:05:21;4.85;;;3.42;;
47796;SDS011;33558;50.922;14.068;2022-07-09T09:07:47;5.10;;;3.00;;
47796;SDS011;33558;50.922;14.068;2022-07-09T09:10:20;7.90;;;3.30;;
47796;SDS011;33558;50.922;14.068;2022-07-09T09:12:49;4.75;;;3.35;;
47796;SDS011;33558;50.922;14.068;2022-07-09T09:15:26;6.47;;;3.30;;
47796;SDS011;33558;50.922;14.068;2022-07-09T09:17:53;5.28;;;2.90;;
47796;SDS011;33558;50.922;14.068;2022-07-09T09:20:20;4.75;;;3.00;;
47796;SDS011;33558;50.922;14.068;2022-07-09T09:22:47;7.80;;;3.65;;
47796;SDS011;33558;50.922;14.068;2022-07-09T09:25:24;6.32;;;3.67;;
47796;SDS011;33558;50.922;14.068;2022-07-09T09:27:54;5.50;;;3.45;;
47796;SDS011;33558;50.922;14.068;2022-07-09T09:30:27;4.75;;;3.03;;
47796;SDS011;33558;50.922;14.068;2022-07-09T09:32:55;5.50;;;2.83;;
47796;SDS011;33558;50.922;14.068;2022-07-09T09:35:23;3.85;;;2.55;;
47796;SDS011;33558;50.922;14.068;2022-07-09T09:37:51;5.63;;;2.70;;
47796;SDS011;33558;50.922;14.068;2022-07-09T09:40:18;4.05;;;2.63;;
47796;SDS011;33558;50.922;14.068;2022-07-09T09:42:45;3.45;;;1.98;;
47796;SDS011;33558;50.922;14.068;2022-07-09T09:45:38;4.85;;;2.38;;
47796;SDS011;33558;50.922;14.068;2022-07-09T09:48:05;5.60;;;2.40;;
47796;SDS011;33558;50.922;14.068;2022-07-09T09:50:32;2.95;;;1.95;;
47796;SDS011;33558;50.922;14.068;2022-07-09T09:52:58;3.65;;;1.85;;
47796;SDS011;33558;50.922;14.068;2022-07-09T09:55:26;5.28;;;2.17;;
47796;SDS011;33558;50.922;14.068;2022-07-09T09:57:52;2.60;;;1.80;;
47796;SDS011;33558;50.922;14.068;2022-07-09T10:00:45;3.88;;;1.80;;
47796;SDS011;33558;50.922;14.068;2022-07-09T10:03:12;4.80;;;1.90;;
47796;SDS011;33558;50.922;14.068;2022-07-09T10:05:39;4.38;;;1.73;;
47796;SDS011;33558;50.922;14.068;2022-07-09T10:08:06;4.20;;;1.23;;
47796;SDS011;33558;50.922;14.068;2022-07-09T10:10:33;2.17;;;1.33;;
47796;SDS011;33558;50.922;14.068;2022-07-09T10:12:59;3.13;;;1.33;;
47796;SDS011;33558;50.922;14.068;2022-07-09T10:15:26;3.85;;;2.05;;
47796;SDS011;33558;50.922;14.068;2022-07-09T10:17:54;5.10;;;1.58;;
47796;SDS011;33558;50.922;14.068;2022-07-09T10:20:31;4.93;;;1.80;;
47796;SDS011;33558;50.922;14.068;2022-07-09T10:22:59;2.33;;;1.27;;
47796;SDS011;33558;50.922;14.068;2022-07-09T10:25:27;5.47;;;1.48;;
47796;SDS011;33558;50.922;14.068;2022-07-09T10:27:54;3.20;;;1.50;;
47796;SDS011;33558;50.922;14.068;2022-07-09T10:30:26;3.35;;;1.40;;
47796;SDS011;33558;50.922;14.068;2022-07-09T10:33:05;3.58;;;1.63;;
47796;SDS011;33558;50.922;14.068;2022-07-09T10:35:39;4.00;;;1.70;;
47796;SDS011;33558;50.922;14.068;2022-07-09T10:38:07;5.05;;;1.92;;
47796;SDS011;33558;50.922;14.068;2022-07-09T10:40:37;2.38;;;1.45;;
47796;SDS011;33558;50.922;14.068;2022-07-09T10:43:05;2.80;;;1.60;;
47796;SDS011;33558;50.922;14.068;2022-07-09T10:45:38;3.00;;;1.60;;
47796;SDS011;33558;50.922;14.068;2022-07-09T10:48:07;5.22;;;1.55;;
47796;SDS011;33558;50.922;14.068;2022-07-09T10:50:36;3.47;;;1.95;;
47796;SDS011;33558;50.922;14.068;2022-07-09T10:53:04;5.53;;;1.98;;
47796;SDS011;33558;50.922;14.068;2022-07-09T10:55:30;3.47;;;1.75;;
47796;SDS011;33558;50.922;14.068;2022-07-09T10:57:57;3.00;;;1.60;;
47796;SDS011;33558;50.922;14.068;2022-07-09T11:00:28;4.65;;;1.48;;
47796;SDS011;33558;50.922;14.068;2022-07-09T11:02:57;4.30;;;1.73;;
47796;SDS011;33558;50.922;14.068;2022-07-09T11:05:26;3.28;;;1.70;;
47796;SDS011;33558;50.922;14.068;2022-07-09T11:07:54;3.47;;;1.60;;
47796;SDS011;33558;50.922;14.068;2022-07-09T11:10:22;3.00;;;1.38;;
47796;SDS011;33558;50.922;14.068;2022-07-09T11:12:49;3.47;;;2.03;;
47796;SDS011;33558;50.922;14.068;2022-07-09T11:15:41;2.38;;;1.50;;
47796;SDS011;33558;50.922;14.068;2022-07-09T11:18:08;2.75;;;1.50;;
47796;SDS011;33558;50.922;14.068;2022-07-09T11:20:38;6.47;;;1.80;;
47796;SDS011;33558;50.922;14.068;2022-07-09T11:23:07;3.35;;;1.83;;
47796;SDS011;33558;50.922;14.068;2022-07-09T11:25:34;3.17;;;1.60;;
47796;SDS011;33558;50.922;14.068;2022-07-09T11:28:02;3.45;;;1.48;;
47796;SDS011;33558;50.922;14.068;2022-07-09T11:30:29;3.65;;;1.55;;
47796;SDS011;33558;50.922;14.068;2022-07-09T11:32:57;2.88;;;1.90;;
47796;SDS011;33558;50.922;14.068;2022-07-09T11:35:28;3.13;;;1.75;;
47796;SDS011;33558;50.922;14.068;2022-07-09T11:37:57;3.65;;;1.88;;
47796;SDS011;33558;50.922;14.068;2022-07-09T11:40:25;2.42;;;1.52;;
47796;SDS011;33558;50.922;14.068;2022-07-09T11:42:52;1.65;;;1.30;;
47796;SDS011;33558;50.922;14.068;2022-07-09T11:45:51;2.92;;;1.00;;
47796;SDS011;33558;50.922;14.068;2022-07-09T11:48:18;2.55;;;1.40;;
47796;SDS011;33558;50.922;14.068;2022-07-09T11:50:45;1.65;;;1.55;;
47796;SDS011;33558;50.922;14.068;2022-07-09T11:53:22;4.78;;;1.55;;
47796;SDS011;33558;50.922;14.068;2022-07-09T11:55:57;2.35;;;1.50;;
47796;SDS011;33558;50.922;14.068;2022-07-09T11:58:25;4.15;;;1.67;;
47796;SDS011;33558;50.922;14.068;2022-07-09T12:00:52;4.22;;;1.60;;
47796;SDS011;33558;50.922;14.068;2022-07-09T12:03:23;1.70;;;1.30;;
47796;SDS011;33558;50.922;14.068;2022-07-09T12:05:50;2.70;;;1.42;;
47796;SDS011;33558;50.922;14.068;2022-07-09T12:08:26;4.20;;;1.50;;
47796;SDS011;33558;50.922;14.068;2022-07-09T12:10:54;3.53;;;1.27;;
47796;SDS011;33558;50.922;14.068;2022-07-09T12:13:20;2.30;;;1.55;;
47796;SDS011;33558;50.922;14.068;2022-07-09T12:15:47;2.45;;;1.45;;
47796;SDS011;33558;50.922;14.068;2022-07-09T12:18:14;2.38;;;1.88;;
47796;SDS011;33558;50.922;14.068;2022-07-09T12:20:40;2.60;;;1.55;;
47796;SDS011;33558;50.922;14.068;2022-07-09T12:23:07;3.63;;;1.90;;
47796;SDS011;33558;50.922;14.068;2022-07-09T12:25:35;4.47;;;1.70;;
47796;SDS011;33558;50.922;14.068;2022-07-09T12:28:02;3.15;;;1.60;;
47796;SDS011;33558;50.922;14.068;2022-07-09T12:30:28;5.32;;;1.70;;
47796;SDS011;33558;50.922;14.068;2022-07-09T12:32:55;4.78;;;1.80;;
47796;SDS011;33558;50.922;14.068;2022-07-09T12:35:23;3.78;;;1.75;;
47796;SDS011;33558;50.922;14.068;2022-07-09T12:37:51;3.55;;;1.60;;
47796;SDS011;33558;50.922;14.068;2022-07-09T12:40:18;5.53;;;1.92;;
47796;SDS011;33558;50.922;14.068;2022-07-09T12:42:46;4.50;;;1.90;;
47796;SDS011;33558;50.922;14.068;2022-07-09T12:45:38;2.83;;;1.48;;
47796;SDS011;33558;50.922;14.068;2022-07-09T12:48:04;2.65;;;1.50;;
47796;SDS011;33558;50.922;14.068;2022-07-09T12:50:31;2.78;;;1.60;;
47796;SDS011;33558;50.922;14.068;2022-07-09T12:52:58;3.67;;;1.60;;
47796;SDS011;33558;50.922;14.068;2022-07-09T12:55:24;2.10;;;1.50;;
47796;SDS011;33558;50.922;14.068;2022-07-09T12:57:52;1.95;;;1.50;;
47796;SDS011;33558;50.922;14.068;2022-07-09T13:00:44;2.00;;;1.75;;
47796;SDS011;33558;50.922;14.068;2022-07-09T13:03:11;4.72;;;1.63;;
47796;SDS011;33558;50.922;14.068;2022-07-09T13:05:37;3.53;;;1.60;;
47796;SDS011;33558;50.922;14.068;2022-07-09T13:08:04;3.50;;;1.23;;
47796;SDS011;33558;50.922;14.068;2022-07-09T13:10:31;1.73;;;1.02;;
47796;SDS011;33558;50.922;14.068;2022-07-09T13:12:59;3.53;;;1.45;;
47796;SDS011;33558;50.922;14.068;2022-07-09T13:15:27;2.28;;;1.58;;
47796;SDS011;33558;50.922;14.068;2022-07-09T13:17:54;1.50;;;1.00;;
47796;SDS011;33558;50.922;14.068;2022-07-09T13:20:20;2.75;;;1.50;;
47796;SDS011;33558;50.922;14.068;2022-07-09T13:22:47;2.50;;;1.45;;
47796;SDS011;33558;50.922;14.068;2022-07-09T13:25:14;3.03;;;1.20;;
47796;SDS011;33558;50.922;14.068;2022-07-09T13:27:41;4.40;;;1.55;;
47796;SDS011;33558;50.922;14.068;2022-07-09T13:30:34;2.72;;;1.42;;
47796;SDS011;33558;50.922;14.068;2022-07-09T13:33:00;2.55;;;1.25;;
47796;SDS011;33558;50.922;14.068;2022-07-09T13:35:27;3.65;;;1.35;;
47796;SDS011;33558;50.922;14.068;2022-07-09T13:37:54;2.83;;;1.38;;
47796;SDS011;33558;50.922;14.068;2022-07-09T13:40:21;3.42;;;1.48;;
47796;SDS011;33558;50.922;14.068;2022-07-09T13:42:47;3.83;;;1.50;;
47796;SDS011;33558;50.922;14.068;2022-07-09T13:45:40;2.47;;;1.55;;
47796;SDS011;33558;50.922;14.068;2022-07-09T13:48:07;2.85;;;1.58;;
47796;SDS011;33558;50.922;14.068;2022-07-09T13:50:33;2.20;;;1.30;;
47796;SDS011;33558;50.922;14.068;2022-07-09T13:53:01;2.28;;;1.40;;
47796;SDS011;33558;50.922;14.068;2022-07-09T13:55:28;4.82;;;1.48;;
47796;SDS011;33558;50.922;14.068;2022-07-09T13:57:55;2.63;;;1.42;;
47796;SDS011;33558;50.922;14.068;2022-07-09T14:00:26;2.30;;;1.38;;
47796;SDS011;33558;50.922;14.068;2022-07-09T14:02:55;3.10;;;1.60;;
47796;SDS011;33558;50.922;14.068;2022-07-09T14:05:21;2.90;;;1.67;;
47796;SDS011;33558;50.922;14.068;2022-07-09T14:07:48;2.60;;;1.42;;
47796;SDS011;33558;50.922;14.068;2022-07-09T14:10:14;3.08;;;1.38;;
47796;SDS011;33558;50.922;14.068;2022-07-09T14:12:41;2.05;;;1.30;;
47796;SDS011;33558;50.922;14.068;2022-07-09T14:15:33;3.20;;;1.00;;
47796;SDS011;33558;50.922;14.068;2022-07-09T14:18:01;3.67;;;1.17;;
47796;SDS011;33558;50.922;14.068;2022-07-09T14:20:27;2.28;;;1.02;;
47796;SDS011;33558;50.922;14.068;2022-07-09T14:22:54;4.20;;;1.40;;
47796;SDS011;33558;50.922;14.068;2022-07-09T14:25:20;1.90;;;1.08;;
47796;SDS011;33558;50.922;14.068;2022-07-09T14:27:49;2.30;;;1.30;;
47796;SDS011;33558;50.922;14.068;2022-07-09T14:30:41;2.70;;;1.10;;
47796;SDS011;33558;50.922;14.068;2022-07-09T14:33:09;2.72;;;1.00;;
47796;SDS011;33558;50.922;14.068;2022-07-09T14:35:35;1.50;;;1.17;;
47796;SDS011;33558;50.922;14.068;2022-07-09T14:38:02;1.85;;;1.10;;
47796;SDS011;33558;50.922;14.068;2022-07-09T14:40:28;1.48;;;1.00;;
47796;SDS011;33558;50.922;14.068;2022-07-09T14:42:55;2.30;;;1.00;;
47796;SDS011;33558;50.922;14.068;2022-07-09T14:45:27;1.58;;;1.00;;
47796;SDS011;33558;50.922;14.068;2022-07-09T14:47:53;2.50;;;1.30;;
47796;SDS011;33558;50.922;14.068;2022-07-09T14:50:22;3.00;;;1.50;;
47796;SDS011;33558;50.922;14.068;2022-07-09T14:52:48;3.50;;;1.00;;
47796;SDS011;33558;50.922;14.068;2022-07-09T14:55:15;1.55;;;1.00;;
47796;SDS011;33558;50.922;14.068;2022-07-09T14:57:42;1.00;;;0.85;;
47796;SDS011;33558;50.922;14.068;2022-07-09T15:00:34;1.30;;;0.88;;
47796;SDS011;33558;50.922;14.068;2022-07-09T15:03:01;2.20;;;1.20;;
47796;SDS011;33558;50.922;14.068;2022-07-09T15:05:29;1.63;;;1.10;;
47796;SDS011;33558;50.922;14.068;2022-07-09T15:07:55;1.08;;;0.95;;
47796;SDS011;33558;50.922;14.068;2022-07-09T15:10:22;4.78;;;1.00;;
47796;SDS011;33558;50.922;14.068;2022-07-09T15:12:49;2.28;;;1.20;;
47796;SDS011;33558;50.922;14.068;2022-07-09T15:15:41;2.92;;;1.60;;